createdAt,value
2023-01-15T00:02:10.408Z,79.09
2023-01-15T00:04:39.814Z,78.95
2023-01-15T00:07:09.051Z,78.89
2023-01-15T00:09:37.687Z,79.12
2023-01-15T00:12:07.184Z,78.95
2023-01-15T00:14:35.835Z,79.25
2023-01-15T00:17:05.385Z,79.10
2023-01-15T00:19:35.566Z,79.04
2023-01-15T00:22:05.145Z,79.15
2023-01-15T00:24:43.541Z,78.71
2023-01-15T00:27:22.362Z,78.02
2023-01-15T00:29:51.258Z,77.20
2023-01-15T00:32:19.991Z,76.64
2023-01-15T00:34:50.187Z,76.82
2023-01-15T00:37:18.982Z,76.87
2023-01-15T00:39:47.656Z,76.64
2023-01-15T00:42:16.398Z,76.47
2023-01-15T00:44:45.561Z,75.82
2023-01-15T00:47:15.438Z,76.30
2023-01-15T00:49:44.667Z,76.16
2023-01-15T00:52:14.919Z,76.43
2023-01-15T00:54:44.661Z,76.03
2023-01-15T00:57:13.464Z,76.20
2023-01-15T00:59:42.315Z,75.90
2023-01-15T01:02:11.100Z,76.01
2023-01-15T01:04:39.994Z,75.82
2023-01-15T01:07:08.770Z,75.68
2023-01-15T01:09:39.111Z,75.25
2023-01-15T01:12:08.328Z,75.10
2023-01-15T01:14:38.480Z,75.08
2023-01-15T01:17:07.247Z,74.99
2023-01-15T01:19:36.175Z,74.95
2023-01-15T01:22:04.965Z,74.89
2023-01-15T01:24:33.771Z,75.30
2023-01-15T01:27:03.949Z,75.28
2023-01-15T01:29:32.707Z,75.84
2023-01-15T01:32:01.432Z,75.73
2023-01-15T01:34:30.257Z,76.46
2023-01-15T01:37:00.153Z,76.83
2023-01-15T01:39:29.472Z,76.64
2023-01-15T01:41:58.229Z,76.83
2023-01-15T01:44:48.801Z,77.06
2023-01-15T01:47:23.351Z,77.41
2023-01-15T01:49:59.171Z,77.62
2023-01-15T01:52:32.097Z,77.93
2023-01-15T01:55:03.395Z,78.57
2023-01-15T01:57:34.381Z,79.02
2023-01-15T02:00:07.277Z,79.22
2023-01-15T02:02:47.288Z,79.01
2023-01-15T02:05:23.294Z,79.61
2023-01-15T02:07:53.030Z,79.35
2023-01-15T02:10:21.868Z,79.41
2023-01-15T02:13:02.084Z,79.79
2023-01-15T02:15:37.342Z,79.98
2023-01-15T02:18:18.350Z,79.48
2023-01-15T02:20:52.082Z,79.55
2023-01-15T02:23:43.670Z,79.16
2023-01-15T02:26:42.913Z,79.18
2023-01-15T02:29:19.514Z,78.67
2023-01-15T02:31:53.766Z,78.64
2023-01-15T02:34:29.354Z,78.32
2023-01-15T02:37:05.021Z,78.11
2023-01-15T02:39:39.381Z,77.44
2023-01-15T02:42:11.234Z,76.98
2023-01-15T02:44:52.524Z,76.83
2023-01-15T02:47:27.602Z,76.85
2023-01-15T02:50:02.819Z,76.87
2023-01-15T02:52:43.647Z,76.71
2023-01-15T02:55:19.080Z,76.42
2023-01-15T02:57:51.957Z,76.24
2023-01-15T03:00:26.029Z,76.00
2023-01-15T03:03:02.491Z,76.03
2023-01-15T03:05:37.921Z,75.75
2023-01-15T03:08:10.143Z,75.94
2023-01-15T03:10:47.834Z,75.43
2023-01-15T03:13:22.591Z,75.89
2023-01-15T03:16:13.574Z,75.47
2023-01-15T03:18:47.424Z,75.52
2023-01-15T03:21:22.821Z,75.69
2023-01-15T03:23:57.742Z,75.55
2023-01-15T03:26:29.403Z,75.30
2023-01-15T03:29:00.819Z,75.06
2023-01-15T03:31:32.393Z,75.34
2023-01-15T03:34:01.219Z,75.57
2023-01-15T03:36:30.845Z,74.95
2023-01-15T03:39:03.680Z,74.85
2023-01-15T03:42:05.244Z,74.99
2023-01-15T03:44:42.481Z,74.62
2023-01-15T03:47:27.901Z,74.41
2023-01-15T03:50:08.145Z,74.81
2023-01-15T03:52:49.877Z,74.70
2023-01-15T03:55:26.232Z,74.03
2023-01-15T03:58:07.025Z,74.16
2023-01-15T04:00:46.623Z,73.79
2023-01-15T04:03:20.414Z,73.50
2023-01-15T04:05:50.540Z,73.33
2023-01-15T04:08:21.380Z,72.58
2023-01-15T04:10:54.700Z,73.00
2023-01-15T04:13:25.355Z,72.64
2023-01-15T04:15:55.636Z,72.56
2023-01-15T04:18:25.964Z,72.37
2023-01-15T04:20:56.103Z,72.19
2023-01-15T04:23:24.943Z,72.19
2023-01-15T04:25:53.752Z,72.34
2023-01-15T04:28:22.484Z,72.13
2023-01-15T04:30:51.315Z,72.04
2023-01-15T04:33:20.043Z,71.17
2023-01-15T04:35:50.251Z,70.94
2023-01-15T04:38:19.306Z,71.09
2023-01-15T04:40:58.175Z,71.18
2023-01-15T04:43:35.771Z,70.87
2023-01-15T04:46:05.027Z,70.13
2023-01-15T04:48:33.808Z,70.32
2023-01-15T04:51:06.854Z,69.75
2023-01-15T04:53:35.812Z,70.30
2023-01-15T04:56:06.317Z,69.98
2023-01-15T04:58:36.153Z,70.14
2023-01-15T05:01:06.678Z,69.79
2023-01-15T05:03:35.436Z,70.19
2023-01-15T05:06:06.601Z,70.86
2023-01-15T05:08:35.776Z,70.90
2023-01-15T05:11:05.216Z,71.38
2023-01-15T05:13:35.552Z,71.78
2023-01-15T05:16:11.393Z,71.22
2023-01-15T05:18:40.724Z,71.11
2023-01-15T05:21:20.901Z,71.83
2023-01-15T05:23:50.536Z,71.80
2023-01-15T05:26:19.180Z,71.91
2023-01-15T05:28:47.844Z,72.07
2023-01-15T05:31:19.355Z,71.51
2023-01-15T05:33:49.947Z,71.10
2023-01-15T05:36:22.611Z,71.03
2023-01-15T05:38:51.501Z,71.33
2023-01-15T05:41:32.105Z,70.73
2023-01-15T05:44:02.972Z,70.87
2023-01-15T05:46:31.885Z,70.68
2023-01-15T05:49:02.514Z,70.03
2023-01-15T05:51:33.169Z,69.52
2023-01-15T05:54:02.003Z,69.38
2023-01-15T05:56:30.742Z,68.86
2023-01-15T05:58:59.661Z,68.55
2023-01-15T06:01:28.426Z,67.81
2023-01-15T06:04:00.034Z,67.45
2023-01-15T06:06:29.200Z,67.88
2023-01-15T06:08:59.845Z,66.80
2023-01-15T06:11:28.927Z,67.25
2023-01-15T06:13:57.697Z,66.43
2023-01-15T06:16:26.799Z,66.72
2023-01-15T06:18:55.558Z,66.83
2023-01-15T06:21:24.350Z,66.61
2023-01-15T06:23:55.034Z,66.88
2023-01-15T06:26:25.249Z,66.86
2023-01-15T06:28:54.079Z,66.84
2023-01-15T06:31:27.316Z,67.12
2023-01-15T06:33:56.096Z,66.83
2023-01-15T06:36:29.157Z,66.52
2023-01-15T06:38:58.016Z,66.58
2023-01-15T06:41:38.410Z,66.83
2023-01-15T06:44:17.452Z,66.33
2023-01-15T06:46:57.865Z,65.93
2023-01-15T06:49:26.644Z,66.14
2023-01-15T06:51:55.413Z,65.63
2023-01-15T06:54:27.665Z,66.25
2023-01-15T06:56:57.953Z,65.64
2023-01-15T06:59:27.076Z,65.94
2023-01-15T07:01:55.773Z,65.62
2023-01-15T07:04:24.578Z,65.73
2023-01-15T07:06:53.354Z,65.81
2023-01-15T07:09:22.148Z,65.37
2023-01-15T07:11:50.871Z,65.69
2023-01-15T07:14:23.541Z,65.84
2023-01-15T07:16:53.238Z,65.59
2023-01-15T07:19:22.476Z,65.26
2023-01-15T07:21:51.344Z,65.55
2023-01-15T07:24:20.301Z,65.57
2023-01-15T07:26:49.241Z,65.86
2023-01-15T07:29:18.084Z,66.65
2023-01-15T07:31:48.235Z,66.77
2023-01-15T07:34:16.967Z,67.06
2023-01-15T07:36:45.666Z,66.66
2023-01-15T07:39:14.491Z,66.66
2023-01-15T07:41:53.489Z,66.80
2023-01-15T07:44:31.731Z,66.39
2023-01-15T07:47:11.743Z,66.47
2023-01-15T07:49:46.794Z,67.00
2023-01-15T07:52:17.364Z,66.81
2023-01-15T07:54:47.448Z,66.57
2023-01-15T07:57:19.306Z,66.66
2023-01-15T07:59:48.672Z,67.17
2023-01-15T08:02:19.101Z,67.41
2023-01-15T08:04:48.584Z,67.61
2023-01-15T08:07:18.281Z,67.34
2023-01-15T08:09:47.042Z,68.17
2023-01-15T08:12:25.453Z,68.04
2023-01-15T08:15:04.036Z,67.62
2023-01-15T08:17:34.976Z,68.13
2023-01-15T08:20:03.754Z,68.82
2023-01-15T08:22:32.400Z,68.29
2023-01-15T08:25:01.273Z,68.77
2023-01-15T08:27:32.225Z,68.88
2023-01-15T08:30:02.628Z,69.38
2023-01-15T08:32:35.790Z,69.55
2023-01-15T08:35:04.695Z,69.15
2023-01-15T08:37:33.301Z,69.30
2023-01-15T08:40:02.081Z,69.74
2023-01-15T08:42:30.965Z,69.37
2023-01-15T08:45:00.163Z,69.59
2023-01-15T08:47:28.873Z,69.80
2023-01-15T08:49:59.212Z,69.93
2023-01-15T08:52:28.006Z,69.81
2023-01-15T08:54:56.660Z,70.42
2023-01-15T08:57:25.446Z,70.16
2023-01-15T08:59:54.341Z,70.53
2023-01-15T09:02:23.025Z,70.91
2023-01-15T09:04:53.012Z,70.95
2023-01-15T09:07:23.343Z,70.62
2023-01-15T09:09:52.142Z,70.80
2023-01-15T09:12:22.833Z,70.43
